Time;durP1;ratioP1;P1;durP2;ratioP2;P2;SDS_P1;SDS_P2;PMS_P1;PMS_P2;Temp;Humidity;BMP_temperature;BMP_pressure;BME280_temperature;BME280_humidity;BME280_pressure;Samples;Min_cycle;Max_cycle;Signal;HPM_P1;HPM_P2
2021/05/03 00:00:50;;;;;;;;;9.00;9.00;;;;;16.98;63.12;100608.53;4918489;29;8957;-72
2021/05/03 00:03:46;;;;;;;;;9.00;9.00;;;;;16.85;63.55;100607.94;4906361;29;8878;-72
2021/05/03 00:06:42;;;;;;;;;7.50;7.50;;;;;16.94;63.67;100603.72;4918632;29;8953;-71
2021/05/03 00:09:37;;;;;;;;;9.25;9.25;;;;;16.78;64.15;100605.03;4911591;29;8845;-72
2021/05/03 00:12:33;;;;;;;;;9.00;9.00;;;;;16.84;64.27;100606.31;4899548;29;8838;-71
2021/05/03 00:15:28;;;;;;;;;7.75;7.25;;;;;16.86;64.67;100606.75;4899986;29;8936;-72
2021/05/03 00:18:24;;;;;;;;;10.00;10.00;;;;;16.88;64.46;100596.03;4886921;29;8891;-72
2021/05/03 00:20:56;;;;;;;;;8.75;7.50;;;;;16.89;64.86;100595.66;4918103;29;9031;-72
2021/05/03 00:23:25;;;;;;;;;9.33;9.33;;;;;16.84;64.87;100589.56;4919164;29;8859;-72
2021/05/03 00:26:20;;;;;;;;;8.00;8.00;;;;;16.73;65.57;100594.19;4886281;29;8935;-72
2021/05/03 00:29:16;;;;;;;;;11.33;11.33;;;;;16.83;65.70;100599.13;4899534;29;9016;-72
2021/05/03 00:31:45;;;;;;;;;10.00;10.00;;;;;16.80;65.52;100606.28;4883997;29;9006;-71
2021/05/03 00:34:13;;;;;;;;;9.75;9.75;;;;;16.83;65.48;100605.53;4899533;29;8889;-72
2021/05/03 00:37:09;;;;;;;;;8.00;8.00;;;;;16.72;66.05;100609.34;4898990;29;8952;-72
2021/05/03 00:40:06;;;;;;;;;7.50;7.50;;;;;16.80;66.26;100613.84;4898895;29;8853;-72
2021/05/03 00:42:35;;;;;;;;;10.50;10.00;;;;;16.71;66.63;100614.09;4912508;29;8901;-72
2021/05/03 00:45:12;;;;;;;;;8.75;8.75;;;;;16.74;66.33;100601.38;4902258;29;8886;-72
2021/05/03 00:48:08;;;;;;;;;10.00;10.00;;;;;16.70;66.51;100606.91;4905009;29;8863;-72
2021/05/03 00:51:04;;;;;;;;;11.25;9.75;;;;;16.76;66.31;100611.00;4917293;29;9069;-72
2021/05/03 00:53:59;;;;;;;;;11.50;9.75;;;;;16.74;66.55;100638.50;4917654;29;8867;-72
2021/05/03 00:56:55;;;;;;;;;9.00;9.00;;;;;16.73;67.28;100655.63;4917090;29;8867;-71
2021/05/03 00:59:39;;;;;;;;;9.25;9.25;;;;;16.74;67.51;100646.06;4904152;29;8851;-72
2021/05/03 01:02:34;;;;;;;;;8.67;8.67;;;;;16.75;67.43;100642.91;4917715;29;8859;-72
2021/05/03 01:05:30;;;;;;;;;10.00;10.00;;;;;16.57;68.33;100630.59;4899882;29;8931;-72
2021/05/03 01:08:25;;;;;;;;;10.67;10.67;;;;;16.70;68.33;100623.66;4892532;29;8935;-71
2021/05/03 01:11:21;;;;;;;;;8.67;8.67;;;;;16.54;68.14;100626.56;4917239;29;9765;-71
2021/05/03 01:14:17;;;;;;;;;7.67;7.67;;;;;16.46;68.24;100612.84;4917705;29;8944;-72
2021/05/03 01:17:12;;;;;;;;;8.67;8.67;;;;;16.30;68.87;100615.75;4917644;29;9805;-71
2021/05/03 01:19:55;;;;;;;;;9.33;9.33;;;;;16.35;68.51;100612.69;4917701;29;9143;-72
2021/05/03 01:22:54;;;;;;;;;6.75;6.75;;;;;16.37;68.26;100608.31;4916449;29;9101;-71
2021/05/03 01:25:50;;;;;;;;;9.67;9.67;;;;;16.44;68.12;100615.22;4917125;29;8847;-71
2021/05/03 01:28:46;;;;;;;;;7.67;7.67;;;;;16.36;68.43;100628.25;4916960;29;8949;-72
2021/05/03 01:31:47;;;;;;;;;11.67;10.00;;;;;16.36;68.49;100614.28;4904320;29;9016;-71
2021/05/03 01:34:23;;;;;;;;;10.25;10.25;;;;;16.39;68.39;100617.13;4918026;29;9026;-71
2021/05/03 01:37:18;;;;;;;;;6.33;6.33;;;;;16.37;68.49;100608.31;4916020;29;8866;-71
2021/05/03 01:40:15;;;;;;;;;7.00;7.00;;;;;16.42;68.51;100596.06;4897730;29;9004;-72
2021/05/03 01:43:17;;;;;;;;;12.33;12.33;;;;;16.34;68.56;100606.28;4897825;29;8952;-71
2021/05/03 01:46:00;;;;;;;;;8.25;8.25;;;;;16.46;68.23;100607.25;4913120;29;9018;-72
2021/05/03 01:48:59;;;;;;;;;7.75;7.75;;;;;16.47;68.21;100606.88;4915026;29;8893;-72
2021/05/03 01:51:55;;;;;;;;;9.50;9.50;;;;;16.48;68.16;100608.50;4903749;29;8852;-72
2021/05/03 01:54:51;;;;;;;;;9.33;9.33;;;;;16.44;67.95;100606.84;4916477;29;9594;-72
2021/05/03 01:57:47;;;;;;;;;9.00;9.00;;;;;16.34;68.23;100591.53;4903419;29;9010;-71
2021/05/03 02:00:44;;;;;;;;;6.75;6.75;;;;;16.39;68.12;100614.31;4916377;29;9159;-72
2021/05/03 02:03:39;;;;;;;;;13.67;13.67;;;;;16.25;68.59;100604.91;4916133;29;8851;-72
2021/05/03 02:06:39;;;;;;;;;8.00;8.00;;;;;16.22;68.69;100608.44;4909597;29;9018;-71
2021/05/03 02:09:34;;;;;;;;;9.33;9.33;;;;;16.25;68.58;100613.28;4916630;29;8945;-71
2021/05/03 02:12:30;;;;;;;;;9.00;9.00;;;;;16.29;68.74;100617.75;4915583;29;9012;-71
2021/05/03 02:15:28;;;;;;;;;12.00;12.00;;;;;16.32;68.85;100619.78;4916137;29;8991;-72
2021/05/03 02:18:23;;;;;;;;;8.33;8.33;;;;;16.19;69.39;100618.38;4916643;29;9089;-72
2021/05/03 02:21:19;;;;;;;;;9.67;9.67;;;;;16.17;69.57;100622.69;4916014;29;9175;-71
2021/05/03 02:24:14;;;;;;;;;9.33;9.33;;;;;16.24;69.31;100617.25;4897176;29;8941;-72
2021/05/03 02:27:10;;;;;;;;;10.00;10.00;;;;;16.19;69.15;100609.19;4934037;29;9012;-72
2021/05/03 02:30:08;;;;;;;;;12.33;11.00;;;;;16.21;69.27;100604.84;4934992;29;9125;-71
2021/05/03 02:33:04;;;;;;;;;11.33;11.33;;;;;16.29;68.95;100614.97;4934717;29;9378;-72
2021/05/03 02:36:00;;;;;;;;;11.75;9.75;;;;;16.26;69.25;100624.09;4934843;29;9076;-72
2021/05/03 02:38:30;;;;;;;;;11.33;11.33;;;;;16.30;69.09;100627.72;4924877;29;8878;-71
2021/05/03 02:41:17;;;;;;;;;11.67;11.67;;;;;16.26;69.30;100621.28;4902781;29;9109;-72
2021/05/03 02:44:14;;;;;;;;;12.67;12.67;;;;;16.12;69.92;100627.41;4915826;29;9123;-72
2021/05/03 02:47:10;;;;;;;;;9.67;9.67;;;;;16.33;69.66;100620.59;4915624;29;9026;-72
2021/05/03 02:49:38;;;;;;;;;10.33;10.33;;;;;16.29;69.57;100631.69;4916279;29;9112;-71
2021/05/03 02:52:34;;;;;;;;;10.00;10.00;;;;;16.31;69.54;100634.91;4915618;29;9260;-71
2021/05/03 02:55:30;;;;;;;;;14.67;14.67;;;;;16.38;69.29;100631.44;4903113;29;9307;-71
2021/05/03 02:58:26;;;;;;;;;11.00;11.00;;;;;16.46;69.39;100632.38;4902846;29;9366;-72
2021/05/03 03:01:21;;;;;;;;;10.00;10.00;;;;;16.47;69.40;100623.63;4916136;29;9105;-72
2021/05/03 03:04:17;;;;;;;;;11.00;11.00;;;;;16.50;69.45;100617.31;4915390;29;9172;-72
2021/05/03 03:07:13;;;;;;;;;13.00;11.33;;;;;16.56;69.20;100624.22;4915553;29;9112;-71
2021/05/03 03:10:09;;;;;;;;;12.00;12.00;;;;;16.59;68.83;100615.09;4915324;29;9179;-71
2021/05/03 03:12:36;;;;;;;;;12.67;12.67;;;;;16.62;68.98;100613.53;4916586;29;9143;-71
2021/05/03 03:15:35;;;;;;;;;12.00;10.00;;;;;16.71;69.21;100616.88;4915093;29;9095;-71
2021/05/03 03:18:32;;;;;;;;;14.00;14.00;;;;;16.75;68.98;100622.53;4915428;29;9830;-71
2021/05/03 03:21:07;;;;;;;;;13.00;13.00;;;;;16.75;69.08;100611.38;4916684;29;8956;-71
2021/05/03 03:24:03;;;;;;;;;9.33;9.33;;;;;16.79;68.73;100609.44;4914622;29;9060;-71
2021/05/03 03:26:59;;;;;;;;;11.67;11.67;;;;;16.68;69.00;100601.66;4916714;29;9022;-72
2021/05/03 03:29:27;;;;;;;;;10.00;10.00;;;;;16.68;69.27;100601.66;4901746;29;8979;-72
2021/05/03 03:32:04;;;;;;;;;12.33;12.33;;;;;16.80;68.97;100616.66;4882051;29;9024;-71
2021/05/03 03:34:33;;;;;;;;;14.25;14.25;;;;;16.82;68.39;100608.69;4926521;29;9113;-71
2021/05/03 03:37:28;;;;;;;;;8.00;8.00;;;;;16.81;68.15;100609.88;4933348;29;8971;-71
2021/05/03 03:40:24;;;;;;;;;12.00;12.00;;;;;16.76;68.47;100611.00;4883628;29;8941;-72
2021/05/03 03:43:20;;;;;;;;;13.00;13.00;;;;;16.89;68.12;100620.78;4897004;29;9056;-71
2021/05/03 03:46:20;;;;;;;;;11.67;11.67;;;;;16.91;67.96;100614.81;4896320;29;8941;-71
2021/05/03 03:49:15;;;;;;;;;14.67;14.33;;;;;16.97;67.58;100606.94;4896206;29;9123;-72
2021/05/03 03:52:11;;;;;;;;;14.33;14.33;;;;;16.91;67.58;100604.44;4896212;29;9872;-71
2021/05/03 03:55:07;;;;;;;;;11.25;11.25;;;;;17.02;67.44;100601.00;4896369;29;8937;-71
2021/05/03 03:58:03;;;;;;;;;12.75;12.25;;;;;17.00;67.26;100600.56;4895936;29;9614;-71
2021/05/03 04:00:59;;;;;;;;;11.00;11.00;;;;;17.04;67.17;100604.25;4885933;29;8971;-71
2021/05/03 04:04:00;;;;;;;;;14.00;14.00;;;;;17.07;66.94;100614.66;4899408;29;9146;-71
2021/05/03 04:07:19;;;;;;;;;11.25;11.25;;;;;17.03;67.48;100603.44;4899670;29;9000;-71
2021/05/03 04:10:12;;;;;;;;;10.00;10.00;;;;;17.18;67.04;100618.44;4923005;29;8895;-71
2021/05/03 04:25:38;;;;;;;;;13.00;13.00;;;;;17.35;65.83;100615.06;4930276;29;8860;-71
2021/05/03 04:28:33;;;;;;;;;13.33;13.33;;;;;17.39;65.68;100617.91;4892118;29;8852;-70
2021/05/03 04:31:29;;;;;;;;;13.00;13.00;;;;;17.37;65.47;100620.28;4894850;29;8960;-70
2021/05/03 04:34:25;;;;;;;;;9.00;9.00;;;;;17.19;65.70;100623.63;4903558;29;9731;-71
2021/05/03 04:37:20;;;;;;;;;9.25;9.00;;;;;17.29;65.59;100627.75;4898540;29;8860;-72
2021/05/03 04:40:16;;;;;;;;;13.75;11.25;;;;;17.27;65.16;100635.72;4904344;29;8847;-72
2021/05/03 04:43:08;;;;;;;;;10.75;10.75;;;;;17.17;65.72;100634.34;4918547;29;8970;-71
2021/05/03 04:46:04;;;;;;;;;10.00;10.00;;;;;17.23;65.42;100634.84;4917918;29;8941;-71
2021/05/03 04:49:00;;;;;;;;;15.00;11.00;;;;;17.31;65.16;100630.16;4917472;29;8878;-71
2021/05/03 04:51:55;;;;;;;;;11.50;11.50;;;;;17.30;65.42;100622.97;4905116;29;9022;-71
2021/05/03 04:54:52;;;;;;;;;13.00;13.00;;;;;17.37;64.66;100623.88;4913762;29;8843;-72
2021/05/03 04:57:47;;;;;;;;;13.50;12.00;;;;;17.37;65.28;100635.06;4917451;29;8901;-72
2021/05/03 05:00:43;;;;;;;;;12.33;12.33;;;;;17.35;65.43;100623.44;4901144;29;8858;-72
2021/05/03 05:03:39;;;;;;;;;11.50;11.50;;;;;17.42;65.00;100615.16;4885776;29;8971;-72
2021/05/03 05:06:34;;;;;;;;;9.75;9.75;;;;;17.43;64.93;100607.56;4916257;29;8927;-71
2021/05/03 05:09:30;;;;;;;;;11.00;11.00;;;;;17.69;66.92;100624.28;4917081;29;8855;-74
2021/05/03 05:11:59;;;;;;;;;12.25;12.25;;;;;17.69;66.94;100624.28;4918433;29;8897;-74
2021/05/03 05:14:55;;;;;;;;;13.50;12.25;;;;;17.85;66.97;100626.09;4904268;29;8871;-75
2021/05/03 05:17:50;;;;;;;;;10.00;8.75;;;;;18.00;68.40;100611.06;4916992;29;8974;-74
2021/05/03 05:20:46;;;;;;;;;13.25;13.25;;;;;18.16;69.32;100622.84;4917022;29;8847;-74
2021/05/03 05:23:41;;;;;;;;;13.25;13.25;;;;;18.09;64.30;100642.34;4916967;29;8851;-74
2021/05/03 05:26:37;;;;;;;;;12.25;12.25;;;;;18.02;65.82;100642.31;4904444;29;8881;-74
2021/05/03 05:29:33;;;;;;;;;12.25;12.25;;;;;17.78;65.58;100618.41;4906138;29;8861;-74
2021/05/03 05:32:28;;;;;;;;;13.50;13.50;;;;;17.83;65.70;100623.69;4905259;29;8875;-72
2021/05/03 05:34:56;;;;;;;;;16.50;13.50;;;;;17.84;66.02;100627.28;4898810;29;8876;-72
2021/05/03 05:37:38;;;;;;;;;14.25;13.00;;;;;17.94;67.06;100619.03;4884423;29;8885;-73
2021/05/03 05:40:33;;;;;;;;;12.00;12.00;;;;;17.94;67.72;100609.81;4900934;29;8873;-74
2021/05/03 05:43:29;;;;;;;;;10.50;10.50;;;;;18.09;67.95;100596.78;4897848;29;8853;-74
2021/05/03 05:46:24;;;;;;;;;11.50;11.50;;;;;18.25;69.79;100567.38;4897917;29;8849;-73
2021/05/03 05:49:20;;;;;;;;;12.25;12.25;;;;;18.11;65.52;100549.63;4897678;29;8876;-73
2021/05/03 05:52:15;;;;;;;;;13.75;13.50;;;;;18.16;67.19;100543.66;4897689;29;8876;-73
2021/05/03 05:55:11;;;;;;;;;23.50;22.00;;;;;18.19;67.47;100537.31;4897611;29;8834;-73
2021/05/03 05:57:56;;;;;;;;;14.25;14.25;;;;;18.60;71.05;100499.63;4898295;29;8873;-74
2021/05/03 06:00:52;;;;;;;;;15.00;14.25;;;;;18.45;66.95;100469.94;4904378;29;8933;-74
2021/05/03 06:03:48;;;;;;;;;14.75;14.75;;;;;18.48;67.87;100480.38;4903352;29;8863;-74
2021/05/03 06:06:31;;;;;;;;;16.00;16.00;;;;;18.52;65.91;100492.38;4900718;29;8847;-73
2021/05/03 06:09:26;;;;;;;;;12.25;12.25;;;;;18.20;65.87;100482.94;4910461;29;8819;-74
2021/05/03 06:12:08;;;;;;;;;11.50;11.25;;;;;18.52;66.21;100508.38;4900005;29;8859;-73
2021/05/03 06:15:04;;;;;;;;;10.25;10.25;;;;;18.64;66.52;100538.88;4915361;29;8847;-73
2021/05/03 06:18:00;;;;;;;;;16.75;16.75;;;;;18.56;65.18;100574.44;4913794;29;8906;-74
2021/05/03 06:20:55;;;;;;;;;15.00;15.00;;;;;18.50;67.13;100598.38;4884674;29;8945;-75
2021/05/03 06:23:51;;;;;;;;;18.50;18.50;;;;;18.69;66.46;100619.75;4912419;29;9611;-74
2021/05/03 06:26:47;;;;;;;;;13.25;13.25;;;;;18.77;65.37;100624.22;4914849;29;8859;-73
2021/05/03 06:29:42;;;;;;;;;12.00;12.00;;;;;19.21;64.06;100605.72;4884536;29;8877;-74
2021/05/03 06:32:38;;;;;;;;;14.75;14.75;;;;;19.41;63.77;100616.25;4898014;29;8868;-75
2021/05/03 06:35:21;;;;;;;;;16.25;15.75;;;;;19.47;63.16;100618.66;4896829;29;8936;-75
2021/05/03 06:38:26;;;;;;;;;18.25;18.00;;;;;19.47;62.78;100615.84;4906041;29;8847;-73
2021/05/03 06:41:22;;;;;;;;;12.00;12.00;;;;;19.69;61.06;100618.41;4915668;29;8873;-74
2021/05/03 06:44:18;;;;;;;;;11.25;11.25;;;;;19.76;60.64;100625.25;4915811;29;8867;-73
2021/05/03 06:47:00;;;;;;;;;24.00;23.50;;;;;19.74;61.70;100633.25;4916679;29;8863;-73
2021/05/03 06:49:56;;;;;;;;;13.75;13.75;;;;;19.56;61.72;100627.53;4915539;29;9616;-73
2021/05/03 06:52:52;;;;;;;;;25.50;21.25;;;;;19.77;62.22;100650.09;4912487;29;8929;-73
2021/05/03 06:55:34;;;;;;;;;13.00;13.00;;;;;19.80;60.75;100645.72;4902843;29;8865;-73
2021/05/03 06:58:02;;;;;;;;;14.50;12.75;;;;;19.69;61.29;100657.69;4901823;29;8898;-73
2021/05/03 07:00:57;;;;;;;;;12.00;11.75;;;;;19.70;61.19;100650.06;4907127;29;8861;-74
2021/05/03 07:03:53;;;;;;;;;10.00;10.00;;;;;19.64;61.33;100638.44;4896340;29;9572;-74
2021/05/03 07:06:37;;;;;;;;;12.75;12.75;;;;;19.59;61.16;100633.19;4898054;29;8862;-73
2021/05/03 07:09:08;;;;;;;;;10.00;10.00;;;;;19.16;62.65;100620.91;4909280;29;9609;-74
2021/05/03 07:12:09;;;;;;;;;14.50;12.50;;;;;19.47;62.79;100602.63;4915301;29;8871;-74
2021/05/03 07:15:05;;;;;;;;;10.50;10.50;;;;;19.46;62.65;100592.63;4915290;29;8843;-74
2021/05/03 07:18:00;;;;;;;;;12.00;12.00;;;;;19.61;61.59;100583.09;4897397;29;8867;-73
2021/05/03 07:20:56;;;;;;;;;13.75;13.75;;;;;19.12;62.66;100592.84;4913651;29;8863;-73
2021/05/03 07:23:53;;;;;;;;;12.50;12.50;;;;;19.45;63.09;100602.25;4915354;29;8891;-74
2021/05/03 07:26:49;;;;;;;;;8.75;8.75;;;;;19.04;63.43;100608.03;4915423;29;8847;-73
2021/05/03 07:29:45;;;;;;;;;11.25;11.25;;;;;19.50;63.04;100599.06;4908549;29;9770;-73
2021/05/03 07:32:41;;;;;;;;;13.00;13.00;;;;;19.56;62.08;100589.06;4927154;29;8984;-73
2021/05/03 07:35:36;;;;;;;;;11.50;11.50;;;;;19.69;62.26;100587.53;4935989;29;8916;-73
2021/05/03 07:38:32;;;;;;;;;11.75;11.75;;;;;19.32;62.28;100606.56;4929992;29;8884;-74
2021/05/03 07:40:59;;;;;;;;;10.50;10.50;;;;;19.46;62.73;100606.66;4919636;29;8863;-75
2021/05/03 07:43:55;;;;;;;;;17.25;15.75;;;;;19.74;64.03;100599.59;4919263;29;8886;-74
2021/05/03 07:46:51;;;;;;;;;12.00;12.00;;;;;19.49;63.39;100605.88;4917046;29;8914;-74
2021/05/03 07:49:46;;;;;;;;;13.00;13.00;;;;;19.94;60.88;100612.09;4887214;29;8988;-73
2021/05/03 07:52:42;;;;;;;;;11.75;11.75;;;;;19.48;61.54;100612.69;4899819;29;8879;-74
2021/05/03 07:55:35;;;;;;;;;12.75;12.75;;;;;19.90;60.51;100617.69;4900765;29;8854;-74
2021/05/03 07:58:30;;;;;;;;;12.75;12.75;;;;;20.15;59.51;100620.53;4900487;29;9589;-73
2021/05/03 08:00:58;;;;;;;;;13.00;13.00;;;;;20.36;59.41;100621.78;4917897;29;8955;-74
2021/05/03 08:03:54;;;;;;;;;11.50;11.50;;;;;20.70;58.46;100611.00;4918300;29;8895;-74
2021/05/03 08:06:53;;;;;;;;;13.33;13.33;;;;;21.05;57.93;100612.97;4918284;29;8852;-73
2021/05/03 08:09:36;;;;;;;;;12.00;12.00;;;;;21.31;57.03;100606.91;4919096;29;8847;-74
2021/05/03 08:12:32;;;;;;;;;11.75;11.75;;;;;21.62;56.37;100604.38;4918428;29;8847;-74
2021/05/03 08:15:28;;;;;;;;;11.00;11.00;;;;;21.46;56.19;100604.06;4918299;29;8862;-75
2021/05/03 08:18:24;;;;;;;;;15.00;15.00;;;;;21.48;57.30;100610.09;4918212;29;8851;-74
2021/05/03 08:21:20;;;;;;;;;15.25;15.25;;;;;22.11;55.15;100603.38;4918742;29;8859;-74
2021/05/03 08:24:15;;;;;;;;;11.25;11.25;;;;;22.15;54.65;100592.06;4918820;29;8839;-75
2021/05/03 08:27:11;;;;;;;;;12.33;12.33;;;;;22.58;55.21;100575.66;4901630;29;8861;-74
2021/05/03 08:29:39;;;;;;;;;12.50;12.50;;;;;22.92;52.11;100581.41;4899972;29;9548;-74
2021/05/03 08:32:35;;;;;;;;;12.50;12.25;;;;;22.98;51.18;100581.75;4912272;29;8855;-75
2021/05/03 08:35:31;;;;;;;;;11.25;11.25;;;;;23.20;51.17;100573.88;4905411;29;8855;-73
2021/05/03 08:37:59;;;;;;;;;13.60;13.60;;;;;23.19;51.42;100564.63;4918676;29;8874;-73
2021/05/03 08:40:58;;;;;;;;;14.60;13.20;;;;;23.55;49.88;100558.53;4917860;29;8851;-73
2021/05/03 08:43:54;;;;;;;;;13.20;13.20;;;;;23.71;49.80;100555.94;4917922;29;8827;-74
2021/05/03 08:46:50;;;;;;;;;12.80;12.40;;;;;23.82;49.96;100548.09;4917408;29;8982;-74
2021/05/03 08:50:06;;;;;;;;;17.00;17.00;;;;;24.04;48.92;100551.41;4916654;29;8867;-74
2021/05/03 08:52:56;;;;;;;;;91.75;88.75;;;;;23.77;49.28;100551.44;4915063;29;8881;-74
2021/05/03 08:55:52;;;;;;;;;204.25;190.00;;;;;23.59;51.00;100545.16;4899630;29;10473;-74
2021/05/03 08:58:38;;;;;;;;;11.25;11.25;;;;;23.54;49.50;100543.63;4898402;29;11642;-77
2021/05/03 09:01:35;;;;;;;;;13.80;13.20;;;;;23.89;48.91;100535.13;4901747;29;8873;-77
2021/05/03 09:04:31;;;;;;;;;26.25;25.00;;;;;24.21;48.33;100538.25;4917330;29;8890;-77
2021/05/03 09:07:04;;;;;;;;;81.00;71.25;;;;;24.38;48.26;100533.53;4918271;29;8852;-77
2021/05/03 09:10:13;;;;;;;;;23.50;22.50;;;;;24.21;48.65;100534.63;4904175;29;11551;-78
2021/05/03 09:13:09;;;;;;;;;77.75;72.00;;;;;23.76;50.15;100526.41;4918046;29;9034;-78
2021/05/03 09:16:24;;;;;;;;;13.60;13.60;;;;;23.30;50.56;100537.06;4904218;29;9913;-77
2021/05/03 09:19:20;;;;;;;;;42.50;36.50;;;;;23.55;50.59;100539.59;4916867;29;8847;-77
2021/05/03 09:22:37;;;;;;;;;23.50;23.50;;;;;23.37;50.72;100539.00;4903541;29;8936;-79
2021/05/03 09:25:39;;;;;;;;;37.00;33.75;;;;;23.31;51.29;100520.97;4901243;29;8861;-78
2021/05/03 09:28:30;;;;;;;;;21.75;20.75;;;;;23.55;49.86;100519.84;4898869;29;9634;-78
2021/05/03 09:31:26;;;;;;;;;13.00;13.00;;;;;23.30;50.46;100517.31;4898376;29;8880;-80
2021/05/03 09:34:29;;;;;;;;;35.25;31.25;;;;;23.81;50.30;100520.31;4899180;29;8861;-79
2021/05/03 09:37:33;;;;;;;;;16.25;16.25;;;;;24.12;49.38;100513.34;4897823;29;9572;-80
2021/05/03 09:40:29;;;;;;;;;17.50;17.50;;;;;24.22;49.34;100510.78;4897784;29;8956;-78
2021/05/03 09:43:25;;;;;;;;;44.00;37.25;;;;;24.52;48.67;100513.53;4897822;29;8987;-79
2021/05/03 09:45:54;;;;;;;;;26.50;26.00;;;;;24.84;47.68;100512.13;4882644;29;8869;-78
2021/05/03 09:48:49;;;;;;;;;17.40;16.00;;;;;25.23;46.62;100500.88;4898249;29;8865;-78
2021/05/03 09:51:52;;;;;;;;;16.80;15.20;;;;;25.66;45.53;100494.28;4898383;29;8948;-79
2021/05/03 09:54:48;;;;;;;;;12.80;12.80;;;;;25.41;45.19;100482.72;4862055;29;8849;-79
2021/05/03 09:58:06;;;;;;;;;15.00;15.00;;;;;25.34;45.83;100497.03;4896894;29;8853;-78
2021/05/03 10:01:01;;;;;;;;;13.40;13.40;;;;;25.78;45.53;100501.34;4897466;29;8853;-78
2021/05/03 10:04:05;;;;;;;;;11.80;11.00;;;;;26.26;44.08;100496.94;4897478;29;8887;-78
2021/05/03 10:07:02;;;;;;;;;12.60;12.60;;;;;26.01;43.90;100500.38;4897204;29;8850;-79
2021/05/03 10:10:08;;;;;;;;;9.00;9.00;;;;;25.63;45.31;100494.38;4897754;29;9592;-79
2021/05/03 10:13:04;;;;;;;;;11.20;11.20;;;;;25.63;45.39;100485.88;4897290;29;8861;-78
2021/05/03 10:16:00;;;;;;;;;11.20;11.20;;;;;25.82;45.60;100495.56;4897031;29;8861;-78
2021/05/03 10:18:56;;;;;;;;;10.60;10.60;;;;;25.72;45.14;100512.38;4897000;29;8853;-77
2021/05/03 10:21:51;;;;;;;;;10.60;10.60;;;;;25.04;46.28;100506.53;4907781;29;8839;-76
2021/05/03 10:24:54;;;;;;;;;10.80;9.80;;;;;25.00;46.15;100511.41;4896814;29;8865;-77
2021/05/03 10:27:52;;;;;;;;;9.40;9.40;;;;;24.87;45.82;100499.97;4896995;29;8849;-77
2021/05/03 10:30:29;;;;;;;;;13.40;13.40;;;;;25.07;45.73;100492.31;4897935;29;8864;-77
2021/05/03 10:33:36;;;;;;;;;11.00;11.00;;;;;24.88;45.75;100496.69;4896838;29;8876;-78
2021/05/03 10:36:31;;;;;;;;;14.00;14.00;;;;;24.77;46.95;100507.44;4896844;29;9470;-78
2021/05/03 10:39:28;;;;;;;;;13.00;13.00;;;;;24.62;46.85;100517.41;4896749;29;8853;-77
2021/05/03 10:42:24;;;;;;;;;14.80;13.00;;;;;24.34;47.72;100510.22;4884187;29;8895;-78
2021/05/03 10:45:20;;;;;;;;;12.00;12.00;;;;;24.47;47.86;100499.91;4884113;29;8853;-77
2021/05/03 10:48:33;;;;;;;;;13.40;13.40;;;;;24.42;48.39;100499.59;4897091;29;8932;-78
2021/05/03 10:51:34;;;;;;;;;14.20;14.20;;;;;24.57;48.39;100498.09;4896617;29;8853;-77
2021/05/03 10:54:48;;;;;;;;;13.60;13.60;;;;;24.68;48.01;100487.38;4884257;29;8887;-78
2021/05/03 10:57:58;;;;;;;;;12.40;12.40;;;;;24.65;48.02;100491.88;4884022;29;9033;-76
2021/05/03 11:00:58;;;;;;;;;15.40;15.40;;;;;24.38;49.48;100482.69;4897122;29;8888;-76
2021/05/03 11:04:06;;;;;;;;;13.80;13.80;;;;;24.37;49.85;100478.25;4897627;29;8948;-76
2021/05/03 11:06:47;;;;;;;;;14.80;14.00;;;;;24.29;49.82;100494.50;4868027;29;8885;-77
2021/05/03 11:09:52;;;;;;;;;12.60;12.60;;;;;24.21;50.50;100487.38;4885827;29;8885;-76
2021/05/03 11:12:47;;;;;;;;;13.20;12.80;;;;;23.96;51.38;100487.78;4900440;29;8888;-77
2021/05/03 11:15:43;;;;;;;;;15.20;15.00;;;;;23.76;53.57;100484.84;4888726;29;8968;-78
2021/05/03 11:18:41;;;;;;;;;15.75;15.75;;;;;23.50;56.91;100492.06;4900098;29;8875;-76
2021/05/03 11:21:42;;;;;;;;;17.75;17.00;;;;;22.95;57.17;100498.00;4900316;29;8991;-76
2021/05/03 11:24:55;;;;;;;;;16.25;16.25;;;;;22.97;60.29;100495.56;4900734;29;8849;-76
2021/05/03 11:33:43;;;;;;;;;20.75;19.75;;;;;22.18;66.69;100523.69;4919621;29;8865;-76
2021/05/03 11:36:40;;;;;;;;;19.75;19.75;;;;;22.08;68.49;100516.09;4919426;29;8865;-77
2021/05/03 11:39:24;;;;;;;;;23.00;22.25;;;;;21.98;69.08;100520.56;4930265;29;8849;-76
2021/05/03 11:45:35;;;;;;;;;31.25;30.00;;;;;21.74;69.86;100511.06;4899547;29;8915;-78
2021/05/03 11:48:33;;;;;;;;;24.25;24.25;;;;;21.73;70.90;100508.66;4907209;29;8861;-77
2021/05/03 11:51:13;;;;;;;;;28.00;27.00;;;;;21.93;69.36;100510.56;4903532;29;8875;-76
2021/05/03 11:54:32;;;;;;;;;28.25;28.00;;;;;21.89;69.51;100504.13;4917604;29;8891;-77
2021/05/03 11:57:30;;;;;;;;;21.00;21.00;;;;;21.82;69.77;100509.00;4893655;29;8900;-77
2021/05/03 12:00:27;;;;;;;;;20.25;19.50;;;;;21.81;69.48;100504.59;4898735;29;8868;-78
2021/05/03 12:03:05;;;;;;;;;21.25;21.25;;;;;21.76;70.92;100491.75;4900304;29;8849;-78
2021/05/03 12:05:34;;;;;;;;;21.25;21.25;;;;;21.79;70.67;100476.88;4908595;29;9726;-78
2021/05/03 12:08:30;;;;;;;;;21.00;21.00;;;;;21.90;71.92;100459.88;4918404;29;8884;-77
2021/05/03 12:11:25;;;;;;;;;19.25;19.25;;;;;21.87;72.09;100450.28;4905563;29;8885;-79
2021/05/03 12:14:44;;;;;;;;;20.25;19.75;;;;;21.88;71.76;100451.06;4905574;29;8966;-78
2021/05/03 12:17:35;;;;;;;;;20.25;20.25;;;;;21.84;71.21;100444.66;4905855;29;8855;-78
2021/05/03 12:20:32;;;;;;;;;22.50;21.75;;;;;21.96;70.91;100429.28;4932739;29;8944;-79
2021/05/03 12:23:28;;;;;;;;;23.00;22.25;;;;;21.60;70.89;100433.16;4918653;29;9584;-78
2021/05/03 12:26:23;;;;;;;;;21.00;21.00;;;;;21.71;71.49;100426.69;4918812;29;8877;-78
2021/05/03 12:29:19;;;;;;;;;24.00;24.00;;;;;21.76;72.44;100415.75;4918378;29;8865;-80
2021/05/03 12:31:47;;;;;;;;;23.50;23.25;;;;;21.77;72.00;100416.56;4919220;29;8846;-78
2021/05/03 12:34:20;;;;;;;;;24.00;23.50;;;;;21.83;71.61;100418.53;4918944;29;8884;-79
2021/05/03 12:37:18;;;;;;;;;22.00;21.50;;;;;21.89;72.19;100416.06;4918777;29;8871;-80
2021/05/03 12:40:35;;;;;;;;;24.75;23.00;;;;;21.85;71.55;100407.66;4917866;29;8895;-79
2021/05/03 12:43:26;;;;;;;;;24.25;23.25;;;;;22.01;71.18;100418.38;4898680;29;8892;-78
2021/05/03 12:46:32;;;;;;;;;23.75;23.50;;;;;22.09;71.38;100403.06;4907379;29;8857;-78
2021/05/03 12:49:27;;;;;;;;;26.75;25.50;;;;;22.07;70.45;100382.13;4911751;29;8869;-78
2021/05/03 12:52:32;;;;;;;;;31.25;29.50;;;;;22.17;71.11;100386.91;4924535;29;8859;-79
2021/05/03 12:55:36;;;;;;;;;24.50;21.00;;;;;22.06;70.42;100411.50;4911574;29;8851;-80
2021/05/03 13:29:42;;;;;;;;;23.25;22.50;;;;;23.09;66.96;100437.81;4898261;29;8862;-80
2021/05/03 13:32:38;;;;;;;;;25.75;24.75;;;;;23.89;66.37;100431.41;4899158;29;8866;-81
2021/05/03 13:35:34;;;;;;;;;20.00;20.00;;;;;24.53;63.50;100432.34;4899677;29;9693;-80
2021/05/03 13:38:29;;;;;;;;;21.60;21.60;;;;;24.95;61.73;100431.50;4897821;29;8862;-81
2021/05/03 13:41:26;;;;;;;;;17.20;17.20;;;;;25.32;61.81;100425.91;4898581;29;8843;-80
2021/05/03 13:44:22;;;;;;;;;20.20;19.40;;;;;25.59;61.00;100428.53;4885913;29;8839;-81
2021/05/03 13:46:49;;;;;;;;;17.80;17.80;;;;;25.60;60.55;100436.56;4882206;29;9594;-81
2021/05/03 13:49:44;;;;;;;;;18.80;17.60;;;;;26.04;59.03;100440.00;4897396;29;8870;-81
2021/05/03 13:52:41;;;;;;;;;19.20;19.20;;;;;26.11;60.09;100428.47;4897493;29;8851;-80
2021/05/03 13:55:39;;;;;;;;;16.60;16.60;;;;;26.75;56.24;100434.47;4897583;29;8967;-80
2021/05/03 13:58:35;;;;;;;;;20.00;20.00;;;;;26.37;57.79;100428.63;4897258;29;8835;-80
2021/05/03 14:01:31;;;;;;;;;18.00;16.40;;;;;26.14;57.92;100429.63;4897421;29;8982;-81
2021/05/03 14:04:26;;;;;;;;;14.00;14.00;;;;;25.95;56.49;100437.78;4884943;29;8859;-80
2021/05/03 14:07:22;;;;;;;;;20.80;19.60;;;;;25.72;57.59;100427.41;4897189;29;8977;-80
2021/05/03 14:10:17;;;;;;;;;15.60;15.60;;;;;25.36;58.16;100424.59;4897223;29;8889;-79
2021/05/03 14:13:13;;;;;;;;;21.80;21.20;;;;;25.29;58.88;100415.44;4884630;29;8898;-80